createdAt,value
2018-02-18T00:02:01.600Z,91.40
2018-02-18T00:04:29.073Z,91.50
2018-02-18T00:06:56.571Z,91.40
2018-02-18T00:09:24.852Z,91.30
2018-02-18T00:11:53.107Z,91.50
2018-02-18T00:17:22.681Z,91.40
2018-02-18T00:19:50.175Z,91.10
2018-02-18T00:22:17.668Z,91.10
2018-02-18T00:24:45.168Z,91.30
2018-02-18T00:27:12.691Z,91.10
2018-02-18T00:29:40.974Z,91.00
2018-02-18T00:32:09.212Z,91.00
2018-02-18T00:34:36.809Z,91.00
2018-02-18T00:37:04.250Z,91.10
2018-02-18T00:39:31.754Z,91.20
2018-02-18T00:41:59.221Z,91.30
2018-02-18T00:44:26.731Z,90.90
2018-02-18T00:46:54.966Z,90.60
2018-02-18T00:49:22.482Z,90.60
2018-02-18T00:51:50.743Z,90.70
2018-02-18T00:54:18.231Z,90.70
2018-02-18T00:56:45.758Z,90.90
2018-02-18T00:59:13.239Z,90.70
2018-02-18T01:01:41.496Z,90.70
2018-02-18T01:04:08.980Z,90.70
2018-02-18T01:06:36.462Z,90.80
2018-02-18T01:09:03.959Z,90.50
2018-02-18T01:11:31.431Z,90.20
2018-02-18T01:13:58.954Z,90.00
2018-02-18T01:16:26.427Z,90.20
2018-02-18T01:18:53.918Z,90.40
2018-02-18T01:21:22.210Z,90.00
2018-02-18T01:23:50.443Z,89.90
2018-02-18T01:26:17.938Z,89.90
2018-02-18T01:28:46.192Z,89.70
2018-02-18T01:31:13.694Z,89.70
2018-02-18T01:33:41.170Z,89.50
2018-02-18T01:36:08.666Z,89.70
2018-02-18T01:38:36.158Z,90.10
2018-02-18T01:41:03.664Z,90.20
2018-02-18T01:43:31.139Z,90.30
2018-02-18T01:46:00.119Z,90.30
2018-02-18T01:48:27.619Z,90.30
2018-02-18T01:50:55.869Z,90.10
2018-02-18T01:53:23.346Z,90.10
2018-02-18T01:55:51.606Z,90.00
2018-02-18T01:58:19.111Z,90.00
2018-02-18T02:00:46.575Z,88.70
2018-02-18T02:03:14.101Z,89.40
2018-02-18T02:05:42.331Z,90.10
2018-02-18T02:08:09.818Z,90.10
2018-02-18T02:10:37.306Z,90.40
2018-02-18T02:13:04.799Z,90.10
2018-02-18T02:15:32.307Z,90.30
2018-02-18T02:18:00.563Z,90.40
2018-02-18T02:20:28.088Z,90.40
2018-02-18T02:22:55.560Z,90.40
2018-02-18T02:25:23.034Z,90.70
2018-02-18T02:27:50.530Z,90.60
2018-02-18T02:30:18.803Z,90.30
2018-02-18T02:32:47.092Z,90.20
2018-02-18T02:35:14.547Z,90.20
2018-02-18T02:37:42.059Z,90.20
2018-02-18T02:40:09.540Z,90.40
2018-02-18T07:58:34.289Z,85.40
2018-02-18T08:01:01.790Z,83.10
2018-02-18T08:03:29.271Z,82.20
2018-02-18T08:05:57.558Z,84.80
2018-02-18T08:08:25.825Z,83.60
2018-02-18T08:10:54.078Z,84.50
2018-02-18T08:13:21.579Z,84.50
2018-02-18T08:15:49.063Z,84.10
2018-02-18T08:18:16.580Z,84.20
2018-02-18T08:20:44.850Z,84.50
2018-02-18T08:23:13.123Z,84.40
2018-02-18T08:25:40.601Z,84.40
2018-02-18T08:28:08.867Z,85.30
2018-02-18T08:30:37.114Z,85.80
2018-02-18T08:33:04.608Z,85.80
2018-02-18T08:35:32.871Z,83.80
2018-02-18T08:38:01.113Z,82.50
2018-02-18T08:40:28.629Z,82.50
2018-02-18T08:42:58.103Z,84.30
2018-02-18T08:45:25.632Z,84.30
2018-02-18T08:47:53.170Z,85.40
2018-02-18T08:50:20.665Z,84.40
2018-02-18T08:52:48.158Z,85.30
2018-02-18T08:55:16.435Z,83.90
2018-02-18T08:57:44.678Z,82.80
2018-02-18T09:00:12.179Z,82.80
2018-02-18T09:02:40.420Z,82.50
2018-02-18T09:05:07.929Z,82.50
2018-02-18T09:07:35.461Z,82.60
2018-02-18T09:10:03.762Z,85.10
2018-02-18T09:12:32.043Z,84.90
2018-02-18T09:14:59.546Z,84.90
2018-02-18T09:17:27.038Z,84.40
2018-02-18T09:19:55.326Z,83.20
2018-02-18T09:22:22.842Z,83.10
2018-02-18T09:24:50.359Z,82.60
2018-02-18T09:27:17.858Z,83.90
2018-02-18T09:29:45.379Z,83.60
2018-02-18T09:32:12.843Z,82.30
2018-02-18T09:34:40.393Z,84.30
2018-02-18T09:37:08.631Z,80.00
2018-02-18T09:39:36.113Z,80.00
2018-02-18T09:42:04.371Z,80.00
2018-02-18T09:44:31.851Z,80.00
2018-02-18T09:46:59.385Z,82.40
2018-02-18T09:49:26.855Z,79.40
2018-02-18T09:51:55.132Z,79.60
2018-02-18T09:54:23.414Z,80.80
2018-02-18T09:56:51.671Z,81.60
2018-02-18T09:59:19.980Z,82.10
2018-02-18T10:01:47.464Z,82.10
2018-02-18T10:04:16.015Z,82.20
2018-02-18T10:06:44.298Z,81.90
2018-02-18T10:09:11.840Z,82.00
2018-02-18T10:11:40.095Z,84.10
2018-02-18T10:14:07.597Z,84.10
2018-02-18T10:16:35.892Z,82.90
2018-02-18T10:19:03.402Z,82.90
2018-02-18T10:21:30.906Z,82.20
2018-02-18T10:23:58.387Z,80.90
2018-02-18T10:26:25.895Z,84.20
2018-02-18T10:28:53.394Z,82.80
2018-02-18T10:31:20.896Z,82.90
2018-02-18T10:33:49.233Z,84.50
2018-02-18T10:36:16.752Z,82.40
2018-02-18T10:38:45.899Z,83.50
2018-02-18T10:41:13.431Z,83.50
2018-02-18T10:43:40.906Z,82.30
2018-02-18T10:46:08.411Z,81.30
2018-02-18T10:48:36.685Z,84.20
2018-02-18T10:51:04.191Z,84.20
2018-02-18T10:53:31.727Z,85.00
2018-02-18T10:56:00.006Z,81.90
2018-02-18T10:58:28.243Z,82.30
2018-02-18T11:00:55.742Z,82.30
2018-02-18T11:03:24.022Z,85.20
2018-02-18T11:05:51.543Z,85.20
2018-02-18T11:08:19.000Z,83.20
2018-02-18T11:10:48.023Z,83.30
2018-02-18T11:13:16.294Z,84.00
2018-02-18T11:15:44.576Z,84.60
2018-02-18T11:18:12.856Z,81.50
2018-02-18T11:20:41.090Z,80.00
2018-02-18T11:23:08.602Z,79.90
2018-02-18T11:25:36.067Z,82.00
2018-02-18T11:28:03.591Z,78.00
2018-02-18T11:30:31.059Z,80.70
2018-02-18T11:32:59.372Z,78.30
2018-02-18T11:35:26.846Z,78.30
2018-02-18T11:37:54.360Z,81.20
2018-02-18T11:40:22.599Z,78.70
2018-02-18T11:42:50.191Z,78.70
2018-02-18T11:45:18.511Z,83.10
2018-02-18T11:47:45.991Z,83.10
2018-02-18T11:50:13.471Z,83.50
2018-02-18T11:52:40.982Z,82.10
2018-02-18T11:55:08.512Z,83.20
2018-02-18T11:57:36.799Z,83.30
2018-02-18T12:00:05.078Z,83.70
2018-02-18T12:02:32.607Z,83.70
2018-02-18T12:05:00.068Z,82.90
2018-02-18T12:07:28.333Z,85.60
2018-02-18T12:09:55.806Z,85.60
2018-02-18T12:12:23.323Z,85.80
2018-02-18T12:14:50.832Z,85.20
2018-02-18T12:17:19.115Z,84.50
2018-02-18T12:19:47.399Z,85.30
2018-02-18T12:22:15.630Z,84.70
2018-02-18T12:24:43.128Z,84.70
2018-02-18T12:27:11.379Z,84.30
2018-02-18T12:29:38.891Z,84.30
2018-02-18T12:32:06.413Z,85.70
2018-02-18T12:34:34.701Z,83.70
2018-02-18T12:37:02.942Z,84.40
2018-02-18T12:39:30.417Z,84.40
2018-02-18T12:41:58.706Z,85.00
2018-02-18T12:44:26.947Z,86.70
2018-02-18T12:46:54.446Z,86.70
2018-02-18T12:49:22.686Z,84.80
2018-02-18T12:51:50.192Z,84.80
2018-02-18T12:54:17.694Z,84.20
2018-02-18T12:56:45.240Z,84.60
2018-02-18T12:59:12.726Z,84.40
2018-02-18T13:01:40.226Z,84.00
2018-02-18T13:04:07.728Z,83.90
2018-02-18T13:06:35.249Z,83.30
2018-02-18T13:09:02.763Z,83.80
2018-02-18T13:11:30.247Z,83.70
2018-02-18T13:13:57.781Z,85.70
2018-02-18T13:16:25.261Z,85.10
2018-02-18T13:18:53.498Z,81.60
2018-02-18T13:21:20.995Z,81.60
2018-02-18T13:23:49.262Z,80.30
2018-02-18T13:26:16.798Z,80.30
2018-02-18T13:28:44.301Z,80.00
2018-02-18T13:31:12.562Z,82.40
2018-02-18T13:33:40.804Z,84.80
2018-02-18T13:36:08.322Z,84.80
2018-02-18T13:38:36.572Z,81.00
2018-02-18T13:41:04.103Z,80.90
2018-02-18T13:43:32.395Z,80.40
2018-02-18T13:45:59.896Z,84.10
2018-02-18T13:48:27.404Z,79.00
2018-02-18T13:50:54.903Z,82.60
2018-02-18T13:53:23.163Z,76.70
2018-02-18T13:55:51.409Z,80.40
2018-02-18T13:58:18.925Z,80.40
2018-02-18T14:00:46.409Z,76.20
2018-02-18T14:03:13.920Z,79.10
2018-02-18T14:05:41.399Z,78.00
2018-02-18T14:08:09.667Z,78.30
2018-02-18T14:10:37.915Z,79.30
2018-02-18T14:13:06.040Z,79.30
2018-02-18T14:15:33.527Z,79.30
2018-02-18T14:18:00.999Z,78.40
2018-02-18T14:20:28.500Z,80.20
2018-02-18T14:22:56.755Z,80.00
2018-02-18T14:25:24.260Z,80.10
2018-02-18T14:27:51.814Z,80.10
2018-02-18T14:30:19.310Z,79.20
2018-02-18T14:32:46.782Z,80.10
2018-02-18T14:35:14.308Z,79.10
2018-02-18T14:37:41.848Z,80.30
2018-02-18T14:40:09.344Z,83.30
2018-02-18T14:42:48.856Z,83.00
2018-02-18T14:45:28.155Z,81.80
2018-02-18T14:48:08.380Z,80.80
2018-02-18T14:50:47.718Z,80.70
2018-02-18T14:53:27.220Z,83.20
2018-02-18T14:56:06.474Z,84.00
2018-02-18T14:58:33.980Z,83.60
2018-02-18T15:01:01.450Z,84.10
2018-02-18T15:03:28.950Z,84.70
2018-02-18T15:05:56.436Z,84.10
2018-02-18T15:08:23.984Z,85.90
2018-02-18T15:10:51.493Z,87.80
2018-02-18T15:13:18.992Z,90.60
2018-02-18T15:15:46.490Z,87.60
2018-02-18T15:18:14.740Z,90.50
2018-02-18T15:20:42.227Z,90.50
2018-02-18T15:23:10.521Z,85.80
2018-02-18T15:25:38.012Z,85.80
2018-02-18T15:28:05.499Z,89.50
2018-02-18T15:30:32.995Z,88.90
2018-02-18T15:33:00.514Z,88.70
2018-02-18T15:35:28.007Z,88.60
2018-02-18T15:37:56.337Z,89.80
2018-02-18T15:40:23.770Z,89.60
2018-02-18T15:42:51.267Z,90.70
2018-02-18T15:45:18.780Z,90.70
2018-02-18T15:47:46.291Z,88.80
2018-02-18T15:50:13.811Z,87.60
2018-02-18T15:52:41.300Z,82.90
2018-02-18T15:55:08.811Z,89.40
2018-02-18T15:57:36.280Z,87.20
2018-02-18T16:00:03.789Z,83.00
2018-02-18T16:02:31.294Z,82.00
2018-02-18T16:04:58.771Z,81.90
2018-02-18T16:07:26.274Z,84.40
2018-02-18T16:09:54.543Z,83.20
2018-02-18T16:12:22.011Z,83.20
2018-02-18T16:14:50.305Z,86.00
2018-02-18T16:17:18.600Z,86.00
2018-02-18T16:19:46.096Z,86.00
2018-02-18T16:22:13.618Z,86.70
2018-02-18T16:24:41.120Z,86.30
2018-02-18T16:27:08.622Z,86.20
2018-02-18T16:29:36.106Z,83.50
2018-02-18T16:32:03.614Z,85.60
2018-02-18T16:34:31.880Z,86.90
2018-02-18T16:36:59.436Z,86.90
2018-02-18T16:39:26.931Z,85.50
2018-02-18T16:41:55.189Z,86.10
2018-02-18T16:44:23.478Z,86.20
2018-02-18T16:46:51.718Z,87.10
2018-02-18T16:49:19.228Z,87.10
2018-02-18T16:51:46.712Z,86.80
2018-02-18T16:54:14.219Z,86.30
2018-02-18T16:56:41.696Z,86.50
2018-02-18T16:59:09.980Z,86.50
2018-02-18T17:01:37.468Z,86.50
2018-02-18T17:04:05.024Z,86.40
2018-02-18T17:06:32.626Z,87.70
2018-02-18T17:09:00.150Z,86.70
2018-02-18T17:11:27.644Z,86.70
2018-02-18T17:13:55.955Z,86.70
2018-02-18T17:16:23.456Z,86.70
2018-02-18T17:18:51.004Z,85.20
2018-02-18T17:21:18.528Z,86.00
2018-02-18T17:23:46.042Z,83.60
2018-02-18T17:26:13.553Z,82.80
2018-02-18T17:28:41.815Z,85.90
2018-02-18T17:31:10.082Z,84.40
2018-02-18T17:33:37.582Z,84.40
2018-02-18T17:36:05.071Z,81.00
2018-02-18T17:38:32.588Z,80.60
2018-02-18T17:41:00.068Z,81.10
2018-02-18T17:43:27.597Z,82.40
2018-02-18T17:45:55.083Z,83.50
2018-02-18T17:48:22.602Z,81.70
2018-02-18T17:50:50.873Z,81.40
2018-02-18T17:53:19.801Z,83.50
2018-02-18T17:55:47.339Z,83.50
2018-02-18T17:58:14.840Z,83.30
2018-02-18T18:00:42.351Z,82.90
2018-02-18T18:03:10.583Z,85.10
2018-02-18T18:05:38.139Z,85.10
2018-02-18T18:08:05.609Z,85.60
2018-02-18T18:10:33.136Z,83.90
2018-02-18T18:13:00.639Z,85.00
2018-02-18T18:15:28.132Z,84.90
2018-02-18T18:17:56.429Z,86.00
2018-02-18T18:20:24.229Z,86.00
2018-02-18T18:22:51.761Z,82.90
2018-02-18T18:25:19.271Z,83.30
2018-02-18T18:27:46.786Z,83.30
2018-02-18T18:30:14.301Z,83.00
2018-02-18T18:32:42.580Z,83.80
2018-02-18T18:35:10.820Z,83.10
2018-02-18T18:37:38.363Z,83.20
2018-02-18T18:40:05.861Z,84.30
2018-02-18T18:42:33.374Z,84.00
2018-02-18T18:45:00.876Z,84.60
2018-02-18T18:47:29.114Z,83.50
2018-02-18T18:49:56.634Z,83.40
2018-02-18T18:52:24.898Z,84.70
2018-02-18T18:54:53.170Z,85.60
2018-02-18T18:57:21.437Z,85.70
2018-02-18T18:59:48.918Z,85.70
2018-02-18T19:02:17.218Z,86.20
2018-02-18T19:04:44.711Z,86.20
2018-02-18T19:07:12.225Z,86.30
2018-02-18T19:09:39.725Z,86.20
2018-02-18T19:12:07.247Z,87.70
2018-02-18T19:14:34.723Z,86.40
2018-02-18T19:17:02.222Z,85.50
2018-02-18T19:19:31.262Z,86.90
2018-02-18T19:21:58.751Z,86.90
2018-02-18T19:24:26.345Z,87.20
2018-02-18T19:26:53.860Z,87.80
2018-02-18T19:29:21.356Z,88.50
2018-02-18T19:31:48.871Z,87.70
2018-02-18T19:34:16.355Z,87.40
2018-02-18T19:36:43.852Z,88.00
2018-02-18T19:39:12.123Z,87.60
2018-02-18T19:41:40.412Z,87.50
2018-02-18T19:44:08.679Z,87.60
2018-02-18T19:46:37.096Z,83.80
2018-02-18T19:49:04.584Z,83.80
2018-02-18T19:51:32.106Z,80.80
2018-02-18T19:53:59.612Z,81.40
2018-02-18T19:56:27.106Z,82.40
2018-02-18T19:58:55.402Z,83.90
2018-02-18T20:01:23.608Z,83.90
2018-02-18T20:03:51.111Z,83.00
2018-02-18T20:06:19.396Z,83.50
2018-02-18T20:08:47.664Z,82.10
2018-02-18T20:11:15.917Z,82.40
2018-02-18T20:13:43.382Z,82.40
2018-02-18T20:16:10.903Z,83.50
2018-02-18T20:18:38.392Z,84.40
2018-02-18T20:21:05.950Z,85.00
2018-02-18T20:23:33.442Z,85.30
2018-02-18T20:26:01.760Z,83.70
2018-02-18T20:28:29.225Z,83.60
2018-02-18T20:30:56.743Z,84.40
2018-02-18T20:33:24.255Z,85.60
2018-02-18T20:35:51.820Z,85.90
2018-02-18T20:38:19.329Z,83.50
2018-02-18T20:40:46.831Z,84.60
2018-02-18T20:43:14.363Z,84.40
2018-02-18T20:45:41.857Z,85.30
2018-02-18T20:48:09.362Z,82.20
2018-02-18T20:50:36.838Z,83.70
2018-02-18T20:53:04.330Z,83.20
2018-02-18T20:55:31.858Z,83.40
2018-02-18T20:57:59.371Z,82.80
2018-02-18T21:00:26.909Z,83.60
2018-02-18T21:02:54.422Z,84.10
2018-02-18T21:05:21.915Z,82.90
2018-02-18T21:07:49.398Z,81.40
2018-02-18T21:10:16.961Z,82.00
2018-02-18T21:12:45.236Z,82.70
2018-02-18T21:15:12.705Z,82.70
2018-02-18T21:17:41.008Z,81.40
2018-02-18T21:20:08.483Z,81.40
2018-02-18T21:22:36.008Z,82.60
2018-02-18T21:25:04.272Z,82.70
2018-02-18T21:27:31.786Z,82.80
2018-02-18T21:29:59.294Z,83.90
2018-02-18T21:32:27.585Z,84.40
2018-02-18T21:34:55.872Z,83.70
2018-02-18T21:37:24.172Z,84.30
2018-02-18T21:39:51.674Z,84.30
2018-02-18T21:42:19.154Z,84.80
2018-02-18T21:44:47.428Z,85.30
2018-02-18T21:47:15.706Z,85.60
2018-02-18T21:49:43.980Z,85.40
2018-02-18T21:52:12.236Z,85.70
2018-02-18T21:54:39.753Z,85.70
2018-02-18T21:57:07.255Z,86.70
2018-02-18T21:59:34.763Z,86.70
2018-02-18T22:02:03.023Z,86.40
2018-02-18T22:04:31.322Z,86.30
2018-02-18T22:06:58.829Z,86.30
2018-02-18T22:09:26.333Z,86.70
2018-02-18T22:11:53.914Z,86.70
2018-02-18T22:14:21.419Z,86.10
2018-02-18T22:16:48.891Z,86.60
2018-02-18T22:19:17.168Z,86.70
2018-02-18T22:21:45.416Z,88.20
2018-02-18T22:24:12.913Z,88.20
2018-02-18T22:26:41.192Z,89.60
2018-02-18T22:29:09.455Z,89.30
2018-02-18T22:31:37.710Z,89.20
2018-02-18T22:34:05.198Z,89.20
2018-02-18T22:36:33.480Z,89.40
2018-02-18T22:39:01.724Z,89.20
2018-02-18T22:41:29.236Z,89.20
2018-02-18T22:43:56.705Z,88.90
2018-02-18T22:46:24.223Z,89.00
2018-02-18T22:48:52.483Z,89.00
2018-02-18T22:51:19.944Z,88.90
2018-02-18T22:53:48.238Z,88.90
2018-02-18T22:56:16.467Z,88.80
2018-02-18T22:58:43.970Z,88.70
2018-02-18T23:01:12.218Z,88.20
2018-02-18T23:03:39.796Z,88.10
2018-02-18T23:06:07.206Z,88.50
2018-02-18T23:08:34.690Z,89.10
2018-02-18T23:11:02.195Z,88.90
2018-02-18T23:13:29.676Z,88.40
2018-02-18T23:15:57.168Z,87.50
2018-02-18T23:18:24.670Z,88.10
2018-02-18T23:21:04.070Z,86.20
2018-02-18T23:23:31.540Z,87.10
2018-02-18T23:25:59.071Z,87.50
2018-02-18T23:28:29.398Z,87.80
2018-02-18T23:30:56.883Z,87.90
2018-02-18T23:33:25.171Z,87.80
2018-02-18T23:35:53.410Z,87.80
2018-02-18T23:38:20.909Z,87.80
2018-02-18T23:40:49.141Z,87.30
2018-02-18T23:43:16.647Z,87.30
2018-02-18T23:45:44.889Z,88.50
2018-02-18T23:48:12.396Z,88.50
2018-02-18T23:50:39.863Z,89.40
2018-02-18T23:53:07.354Z,89.90
2018-02-18T23:55:34.877Z,90.00
2018-02-18T23:58:02.335Z,90.00
